Time;durP1;ratioP1;P1;durP2;ratioP2;P2;SDS_P1;SDS_P2;PMS_P1;PMS_P2;Temp;Humidity;BMP_temperature;BMP_pressure;BME280_temperature;BME280_humidity;BME280_pressure;Samples;Min_cycle;Max_cycle;Signal;HPM_P1;HPM_P2
2021/07/20 00:02:38;;;;;;;27.17;18.85;;;15.10;99.90;;;14.07;87.74;97860.38;4978856;28;20133;-63
2021/07/20 00:05:28;;;;;;;30.38;19.20;;;15.00;99.90;;;14.07;88.00;97857.78;4949377;28;20046;-64
2021/07/20 00:08:16;;;;;;;27.75;20.15;;;15.00;99.90;;;14.01;88.41;97855.47;4988670;28;20057;-64
2021/07/20 00:11:03;;;;;;;25.50;18.05;;;15.00;99.90;;;14.05;87.97;97851.78;4990437;28;20443;-64
2021/07/20 00:13:51;;;;;;;25.02;16.77;;;15.00;99.90;;;14.16;87.61;97849.47;4991339;28;20081;-63
2021/07/20 00:16:38;;;;;;;30.48;17.52;;;14.90;99.90;;;14.26;86.39;97859.41;4990518;28;20064;-65
2021/07/20 00:19:26;;;;;;;23.10;16.00;;;14.90;99.90;;;14.10;87.00;97857.59;4986872;28;20444;-63
2021/07/20 00:22:13;;;;;;;26.92;17.55;;;14.90;99.90;;;14.00;87.65;97859.84;4989823;28;20106;-63
2021/07/20 00:25:00;;;;;;;25.23;16.63;;;14.80;99.90;;;14.14;87.54;97855.66;4993513;28;20050;-63
2021/07/20 00:27:48;;;;;;;25.48;17.27;;;14.90;99.90;;;14.12;86.85;97863.59;4990181;28;20073;-63
2021/07/20 00:30:35;;;;;;;26.60;16.42;;;14.90;99.90;;;14.06;86.78;97856.06;4989918;28;20047;-64
2021/07/20 00:33:23;;;;;;;27.67;17.55;;;14.80;99.90;;;13.97;86.67;97856.56;4966585;28;20049;-63
2021/07/20 00:36:10;;;;;;;29.83;19.45;;;14.90;99.90;;;13.77;88.49;97849.75;4989849;28;20290;-62
2021/07/20 00:38:57;;;;;;;27.80;19.13;;;14.80;99.90;;;13.70;88.61;97849.22;4987918;28;20531;-63
2021/07/20 00:41:45;;;;;;;27.35;18.63;;;14.70;99.90;;;13.69;89.12;97847.53;4996194;28;20043;-63
2021/07/20 00:44:33;;;;;;;32.22;18.88;;;14.70;99.90;;;13.71;89.15;97845.69;4981062;28;20060;-64
2021/07/20 00:47:22;;;;;;;28.98;19.55;;;;;;;13.73;89.30;97851.69;4982302;28;20145;-62
2021/07/20 00:50:12;;;;;;;33.75;19.20;;;;;;;13.69;89.50;97847.53;4988075;28;20128;-63
2021/07/20 00:53:04;;;;;;;27.13;19.02;;;;;;;13.68;89.49;97851.03;4986760;28;20034;-63
2021/07/20 00:55:52;;;;;;;31.33;19.23;;;;;;;13.49;89.85;97855.53;4994462;28;20066;-62
2021/07/20 00:58:40;;;;;;;28.40;19.52;;;14.30;99.90;;;13.51;89.60;97856.28;4990296;28;20054;-62
2021/07/20 01:01:28;;;;;;;27.02;18.42;;;14.40;99.90;;;13.39;89.41;97857.75;4987343;28;20573;-63
2021/07/20 01:04:17;;;;;;;27.58;18.38;;;14.20;99.90;;;13.41;89.80;97860.25;4987858;28;20054;-63
2021/07/20 01:07:05;;;;;;;30.55;20.23;;;14.20;99.90;;;13.31;91.23;97855.50;4987759;28;20046;-63
2021/07/20 01:09:58;;;;;;;29.27;19.70;;;14.20;99.90;;;13.45;91.36;97853.97;4963040;28;20055;-62
2021/07/20 01:12:46;;;;;;;31.25;19.17;;;14.20;99.90;;;13.48;90.77;97859.91;4989025;28;20482;-62
2021/07/20 01:15:36;;;;;;;25.48;16.38;;;14.30;99.90;;;13.48;89.75;97861.63;4962070;28;20050;-63
2021/07/20 01:18:26;;;;;;;25.85;17.90;;;14.30;99.90;;;13.41;89.52;97861.13;4987594;28;20042;-62
2021/07/20 01:21:13;;;;;;;26.65;16.92;;;14.20;99.90;;;13.42;88.54;97859.34;4984712;28;20108;-63
2021/07/20 01:24:10;;;;;;;25.33;16.35;;;14.10;99.90;;;13.21;89.15;97861.22;4987922;28;20038;-62
2021/07/20 01:26:58;;;;;;;26.02;18.00;;;14.00;99.90;;;12.89;90.68;97858.41;4988959;28;20039;-64
2021/07/20 01:29:48;;;;;;;28.67;18.10;;;13.80;99.90;;;13.02;91.45;97862.09;4990159;28;20112;-62
2021/07/20 01:32:36;;;;;;;29.20;17.90;;;13.80;99.90;;;12.95;90.51;97856.34;4972355;28;20049;-63
2021/07/20 01:35:26;;;;;;;29.42;20.23;;;13.70;99.90;;;12.89;91.27;97861.84;4970222;28;20042;-64
2021/07/20 01:38:20;;;;;;;30.60;18.65;;;13.70;99.90;;;12.84;91.56;97855.16;4986149;28;20614;-64
2021/07/20 01:41:15;;;;;;;26.23;17.55;;;13.60;99.90;;;12.91;92.59;97856.56;4974077;28;20035;-63
2021/07/20 01:44:07;;;;;;;30.25;19.35;;;13.70;99.90;;;12.90;92.52;97855.69;4961091;28;20042;-63
2021/07/20 01:46:56;;;;;;;27.70;19.23;;;13.70;99.90;;;12.90;92.69;97854.88;4988170;28;20554;-64
2021/07/20 01:49:44;;;;;;;27.10;18.08;;;13.70;99.90;;;12.90;92.27;97858.31;4986023;28;20042;-63
2021/07/20 01:52:32;;;;;;;36.22;19.98;;;13.70;99.90;;;12.64;92.66;97849.13;4991039;28;20120;-64
2021/07/20 01:55:23;;;;;;;31.90;20.17;;;13.60;99.90;;;12.70;93.62;97851.47;4990417;28;20054;-63
2021/07/20 01:58:10;;;;;;;29.95;19.85;;;13.60;99.90;;;12.70;93.66;97853.19;4978030;28;20038;-62
2021/07/20 02:00:59;;;;;;;26.52;18.85;;;13.50;99.90;;;12.72;93.02;97851.38;4986057;28;20375;-62
2021/07/20 02:09:55;;;;;;;29.15;19.42;;;13.50;99.90;;;12.65;92.84;97853.41;4985555;28;20117;-62
2021/07/20 02:12:44;;;;;;;29.38;19.70;;;13.50;99.90;;;12.59;92.91;97852.84;4978167;28;20047;-62
2021/07/20 02:15:37;;;;;;;30.20;19.13;;;13.40;99.90;;;12.53;93.27;97849.63;4984123;28;20045;-62
2021/07/20 02:18:29;;;;;;;30.05;18.20;;;13.40;99.90;;;12.53;93.03;97857.44;4993377;28;20042;-63
2021/07/20 02:21:20;;;;;;;31.20;18.25;;;13.40;99.90;;;12.51;92.81;97858.41;4990386;28;20066;-63
2021/07/20 02:24:08;;;;;;;28.33;18.13;;;13.40;99.90;;;12.55;92.37;97850.41;4992595;28;20046;-63
2021/07/20 02:27:04;;;;;;;31.55;20.17;;;13.50;99.90;;;12.41;93.31;97849.34;4990706;28;20136;-63
2021/07/20 02:29:55;;;;;;;28.83;19.40;;;13.50;99.90;;;12.32;93.60;97841.03;4988349;28;20174;-63
2021/07/20 02:32:45;;;;;;;26.45;17.73;;;13.40;99.90;;;12.30;93.33;97845.47;4987314;28;20042;-63
2021/07/20 02:35:36;;;;;;;30.92;19.63;;;;;;;12.23;93.31;97853.63;4975989;28;20042;-64
2021/07/20 02:38:25;;;;;;;26.88;18.67;;;;;;;12.18;94.59;97845.16;4983669;28;20054;-63
2021/07/20 02:41:13;;;;;;;29.83;18.55;;;13.00;99.90;;;12.18;94.76;97842.56;4992204;28;20185;-63
2021/07/20 02:44:02;;;;;;;29.80;19.23;;;13.00;99.90;;;12.06;94.94;97839.59;4993617;28;20035;-64
2021/07/20 02:46:50;;;;;;;28.95;18.58;;;13.00;99.90;;;12.08;95.33;97840.38;4984406;28;20054;-63
2021/07/20 02:49:39;;;;;;;31.52;20.80;;;12.90;99.90;;;12.09;95.82;97838.63;4979435;28;20053;-63
2021/07/20 02:52:30;;;;;;;26.42;19.30;;;12.90;99.90;;;12.05;96.47;97839.69;4978138;28;20042;-63
2021/07/20 02:55:18;;;;;;;28.65;20.33;;;12.90;99.90;;;12.09;96.19;97834.28;4994797;28;20053;-63
2021/07/20 02:58:06;;;;;;;29.25;18.75;;;13.00;99.90;;;12.11;96.09;97840.25;4985607;28;20038;-63
2021/07/20 03:00:56;;;;;;;32.08;20.23;;;13.00;99.90;;;12.12;94.98;97836.72;4983482;28;20049;-63
2021/07/20 03:03:44;;;;;;;29.05;19.90;;;13.00;99.90;;;12.10;95.51;97833.34;4989027;28;20054;-63
2021/07/20 03:06:32;;;;;;;30.73;20.10;;;13.00;99.90;;;12.01;95.63;97836.34;4977331;28;20049;-63
2021/07/20 03:09:24;;;;;;;31.98;20.08;;;12.90;99.90;;;12.08;95.59;97832.56;4991199;28;20046;-62
2021/07/20 03:12:14;;;;;;;31.38;18.92;;;13.00;99.90;;;12.17;95.23;97839.13;4989841;28;20066;-62
2021/07/20 03:15:03;;;;;;;28.27;18.55;;;13.00;99.90;;;12.12;94.63;97835.88;4985933;28;20050;-62
2021/07/20 03:17:52;;;;;;;34.20;19.23;;;12.90;99.90;;;12.08;95.24;97837.75;4990428;28;20233;-62
2021/07/20 03:20:41;;;;;;;31.73;18.85;;;12.90;99.90;;;11.78;93.44;97839.09;4987908;28;20366;-62
2021/07/20 03:23:29;;;;;;;29.27;18.08;;;12.80;99.90;;;11.78;93.73;97831.28;4989489;28;20101;-62
2021/07/20 03:26:18;;;;;;;25.83;16.42;;;12.70;99.90;;;11.75;93.79;97834.88;4986364;28;20093;-62
2021/07/20 03:29:09;;;;;;;24.27;16.40;;;12.70;99.90;;;11.80;92.98;97832.06;4980552;28;20054;-62
2021/07/20 03:31:57;;;;;;;24.10;16.00;;;12.70;99.90;;;11.68;93.10;97836.88;4991522;28;20396;-62
2021/07/20 03:34:46;;;;;;;21.67;15.10;;;12.60;99.90;;;11.73;92.54;97827.13;4990247;28;20157;-62
2021/07/20 03:37:34;;;;;;;22.48;15.70;;;12.60;99.90;;;11.67;92.40;97826.53;4968856;28;20483;-62
2021/07/20 03:40:21;;;;;;;22.92;14.32;;;12.60;99.90;;;11.85;90.51;97823.16;4993863;28;20096;-63
2021/07/20 03:43:09;;;;;;;22.42;15.13;;;12.60;99.90;;;11.76;90.90;97826.16;5001613;28;20469;-63
2021/07/20 03:45:59;;;;;;;28.48;17.95;;;12.50;99.90;;;11.61;93.34;97826.78;4986887;28;20046;-63
2021/07/20 03:48:47;;;;;;;25.70;18.05;;;12.40;99.90;;;11.55;93.97;97835.72;4988911;28;20045;-63
2021/07/20 03:51:36;;;;;;;27.58;18.15;;;12.40;99.90;;;11.62;94.65;97833.72;4970651;28;20054;-63
2021/07/20 03:54:26;;;;;;;25.48;16.23;;;12.40;99.90;;;11.73;94.09;97829.72;4979890;28;20061;-63
2021/07/20 03:57:19;;;;;;;24.27;16.02;;;12.40;99.90;;;11.70;93.90;97840.28;4988873;28;20050;-63
2021/07/20 04:00:08;;;;;;;21.75;14.23;;;12.50;99.90;;;11.66;92.46;97837.88;4990366;28;20136;-63
2021/07/20 04:03:21;;;;;;;25.30;15.73;;;12.40;99.90;;;11.51;92.76;97840.19;4977829;28;20046;-63
2021/07/20 04:06:10;;;;;;;24.92;17.15;;;12.40;99.90;;;11.47;93.79;97841.25;4985104;28;20046;-63
2021/07/20 04:08:58;;;;;;;23.15;16.00;;;12.30;99.90;;;11.48;94.30;97842.09;4987582;28;20101;-63
2021/07/20 04:11:46;;;;;;;24.70;16.13;;;12.40;99.90;;;11.50;92.82;97838.50;4997205;28;20500;-63
2021/07/20 04:14:36;;;;;;;27.35;16.23;;;12.40;99.90;;;11.48;92.55;97850.72;4993543;28;20491;-63
2021/07/20 04:17:24;;;;;;;23.23;15.65;;;12.40;99.90;;;11.43;92.93;97844.88;4988445;28;20030;-63
2021/07/20 04:20:14;;;;;;;26.02;17.08;;;12.40;99.90;;;11.43;93.48;97849.25;4993892;28;20038;-63
2021/07/20 04:23:02;;;;;;;27.30;17.35;;;12.30;99.90;;;11.40;93.98;97851.94;4987965;28;20054;-63
2021/07/20 04:25:54;;;;;;;26.13;16.98;;;12.30;99.90;;;11.40;95.54;97849.34;5006751;28;20096;-63
2021/07/20 04:28:42;;;;;;;27.03;17.10;;;12.30;99.90;;;11.48;94.47;97853.31;4989933;28;20484;-63
2021/07/20 04:31:30;;;;;;;25.92;15.32;;;12.30;99.90;;;11.60;93.73;97843.31;4987272;28;20384;-63
2021/07/20 04:34:18;;;;;;;25.88;17.38;;;12.50;99.90;;;11.73;94.31;97853.13;4973675;28;20096;-63
2021/07/20 04:37:09;;;;;;;23.08;15.93;;;12.50;99.90;;;11.84;93.52;97849.25;4985768;28;20038;-64
2021/07/20 04:39:57;;;;;;;24.17;15.38;;;12.60;99.90;;;11.81;93.04;97852.78;4977621;28;20035;-64
2021/07/20 04:42:47;;;;;;;28.27;17.40;;;12.70;99.90;;;11.83;93.31;97845.78;4988555;28;20052;-63
2021/07/20 04:45:35;;;;;;;27.23;17.27;;;12.70;99.90;;;11.92;93.84;97849.75;4989782;28;20047;-63
2021/07/20 04:48:24;;;;;;;23.58;17.00;;;12.70;99.90;;;11.98;93.68;97844.31;4987550;28;20050;-63
2021/07/20 04:51:12;;;;;;;26.42;17.65;;;12.80;99.90;;;12.00;94.26;97847.69;4994607;28;20049;-63
2021/07/20 04:54:04;;;;;;;30.70;19.13;;;12.90;99.90;;;12.04;95.24;97849.25;4997454;28;20128;-63
2021/07/20 04:56:51;;;;;;;29.15;18.77;;;13.00;99.90;;;12.00;95.65;97852.88;4976116;28;20038;-63
2021/07/20 04:59:39;;;;;;;28.27;19.08;;;12.90;99.90;;;12.08;95.91;97857.75;4991730;28;20128;-63
2021/07/20 05:02:27;;;;;;;29.00;19.15;;;13.00;99.90;;;12.14;95.93;97860.09;4989903;28;20097;-63
2021/07/20 05:05:18;;;;;;;27.13;17.85;;;13.10;99.90;;;12.34;95.01;97860.03;4975974;28;20037;-64
2021/07/20 05:08:13;;;;;;;25.20;15.82;;;13.20;99.90;;;12.50;94.33;97861.94;4975317;28;20116;-63
2021/07/20 05:11:01;;;;;;;23.65;15.45;;;13.30;99.90;;;12.49;93.77;97860.25;4981851;28;20101;-63
2021/07/20 05:13:49;;;;;;;26.15;17.90;;;13.40;99.90;;;12.29;94.58;97859.41;4993790;28;20034;-63
2021/07/20 05:16:38;;;;;;;30.92;18.17;;;13.30;99.90;;;12.40;96.35;97869.31;4975512;28;20034;-64
2021/07/20 05:19:27;;;;;;;34.22;20.65;;;13.30;99.90;;;12.64;96.97;97875.16;4994688;28;20097;-63
2021/07/20 05:22:19;;;;;;;26.52;19.25;;;13.50;99.90;;;12.93;96.41;97880.75;4988532;28;20109;-63
2021/07/20 05:25:09;;;;;;;35.05;17.90;;;13.70;99.90;;;13.17;95.29;97879.59;4983836;28;20049;-63
2021/07/20 05:27:58;;;;;;;26.63;18.33;;;14.00;99.90;;;13.23;95.04;97875.88;4979476;28;20097;-63
2021/07/20 05:30:50;;;;;;;25.90;18.27;;;14.20;99.90;;;13.39;94.34;97887.25;4991574;28;20047;-63
2021/07/20 05:33:39;;;;;;;30.20;18.83;;;14.30;99.90;;;13.48;94.17;97882.50;4974956;28;20042;-63
2021/07/20 05:36:27;;;;;;;29.80;19.20;;;14.50;99.90;;;13.58;94.42;97884.59;4976105;28;20376;-63
2021/07/20 05:39:15;;;;;;;26.30;16.60;;;14.70;99.90;;;13.89;93.63;97879.56;4979370;28;20047;-63
2021/07/20 05:42:04;;;;;;;26.77;17.00;;;14.90;99.90;;;14.08;93.58;97879.50;4975427;28;20042;-63
2021/07/20 05:44:52;;;;;;;28.25;18.63;;;15.10;99.90;;;14.22;93.09;97879.59;4989171;28;20526;-62
2021/07/20 05:47:46;;;;;;;23.35;15.35;;;15.20;99.90;;;14.46;92.04;97881.84;4991239;28;20495;-61
2021/07/20 05:50:36;;;;;;;22.83;16.63;;;15.40;99.90;;;14.56;91.70;97878.69;4994723;28;20088;-61
2021/07/20 05:53:25;;;;;;;26.77;18.20;;;15.60;99.90;;;14.62;90.43;97882.75;4977201;28;20508;-61
2021/07/20 05:56:13;;;;;;;19.88;15.05;;;15.80;99.90;;;15.00;88.96;97893.69;4999203;28;20038;-62
2021/07/20 05:59:02;;;;;;;22.60;15.65;;;16.00;99.90;;;15.06;88.57;97888.13;4978677;28;20101;-62
2021/07/20 06:01:51;;;;;;;23.05;15.43;;;16.20;99.90;;;15.34;87.56;97891.81;5000992;28;20046;-63
2021/07/20 06:04:41;;;;;;;24.40;15.20;;;16.40;99.90;;;15.48;86.36;97889.25;4977976;28;20153;-62
2021/07/20 06:07:32;;;;;;;25.15;16.65;;;16.50;99.90;;;15.41;85.33;97898.38;5008603;28;20038;-62
2021/07/20 06:10:20;;;;;;;23.80;15.35;;;16.60;99.90;;;15.52;85.12;97897.75;4972834;28;20054;-61
2021/07/20 06:13:10;;;;;;;24.80;16.02;;;16.70;99.90;;;15.51;84.36;97898.72;4972431;28;20578;-62
2021/07/20 06:15:59;;;;;;;23.70;15.55;;;16.80;99.90;;;15.50;83.61;97898.78;4967340;28;20043;-61
2021/07/20 06:18:46;;;;;;;27.52;17.85;;;16.80;99.90;;;15.19;84.82;97905.75;4977182;28;20042;-62
2021/07/20 06:21:35;;;;;;;23.92;15.40;;;16.90;99.90;;;15.58;83.63;97905.28;4977998;28;20046;-62
2021/07/20 06:24:24;;;;;;;21.80;15.45;;;16.90;99.90;;;15.62;83.47;97900.69;4958444;28;20074;-62
2021/07/20 06:27:14;;;;;;;23.80;15.23;;;17.00;99.90;;;15.85;82.30;97897.63;4970439;28;20038;-62
2021/07/20 06:30:05;;;;;;;25.52;16.10;;;17.10;99.90;;;16.05;81.38;97892.97;4973460;28;20514;-62
2021/07/20 06:32:52;;;;;;;26.00;15.38;;;17.20;99.90;;;16.06;80.65;97902.53;4963097;28;20046;-62
2021/07/20 06:35:43;;;;;;;25.58;16.38;;;17.30;99.90;;;16.04;78.90;97907.84;4986179;28;20142;-62
2021/07/20 06:38:33;;;;;;;25.02;15.98;;;17.30;99.90;;;16.23;78.87;97911.97;4973932;28;20427;-62
2021/07/20 06:41:21;;;;;;;21.15;15.60;;;17.40;99.90;;;16.32;78.48;97914.03;4973330;28;20471;-62
2021/07/20 06:44:08;;;;;;;23.67;15.13;;;17.50;99.90;;;16.42;78.11;97915.19;4977480;28;20047;-61
2021/07/20 06:46:58;;;;;;;23.63;14.93;;;17.50;99.90;;;16.56;78.41;97909.09;4955924;28;20042;-62
2021/07/20 06:49:48;;;;;;;25.35;14.30;;;17.80;99.90;;;16.82;78.18;97910.09;4960719;28;20082;-62
2021/07/20 06:52:36;;;;;;;20.83;13.85;;;18.00;99.90;;;16.87;77.83;97909.81;4976879;28;20250;-63
2021/07/20 06:55:25;;;;;;;26.35;14.88;;;18.20;99.90;;;17.06;76.83;97919.97;4969137;28;20315;-63
2021/07/20 06:58:14;;;;;;;19.50;13.65;;;18.30;99.90;;;17.45;76.88;97915.75;4961592;28;20076;-63
2021/07/20 07:01:05;;;;;;;21.88;14.15;;;18.50;99.90;;;17.44;75.77;97914.06;4952444;28;20093;-63
2021/07/20 07:04:29;;;;;;;23.17;15.32;;;18.80;99.90;;;17.35;74.61;97915.50;4968244;28;20058;-63
2021/07/20 07:07:18;;;;;;;21.35;13.43;;;18.80;99.90;;;17.58;75.10;97914.00;4972639;28;20051;-63
2021/07/20 07:10:08;;;;;;;21.98;13.52;;;18.90;99.90;;;17.88;73.49;97915.56;4968676;28;20538;-63
2021/07/20 07:12:56;;;;;;;22.77;14.13;;;19.10;99.90;;;17.69;73.55;97919.38;4977164;28;20045;-63
2021/07/20 07:15:44;;;;;;;19.58;13.18;;;19.20;99.90;;;17.70;73.56;97920.25;4976795;28;20521;-63
2021/07/20 07:18:32;;;;;;;22.42;12.77;;;19.30;99.90;;;18.18;73.01;97920.56;4991002;28;20466;-63
2021/07/20 07:21:20;;;;;;;22.85;12.80;;;19.40;99.90;;;18.05;70.56;97925.78;4994732;28;20472;-64
2021/07/20 07:24:12;;;;;;;20.65;12.93;;;19.40;99.90;;;18.38;71.96;97927.06;4994764;28;20355;-64
2021/07/20 07:27:02;;;;;;;22.40;14.90;;;19.50;99.90;;;18.07;70.35;97926.53;4992984;28;20050;-63
2021/07/20 07:29:55;;;;;;;22.58;13.65;;;19.70;99.90;;;18.20;70.49;97923.91;4990407;28;20034;-64
2021/07/20 07:32:42;;;;;;;23.15;14.13;;;19.60;99.90;;;18.20;70.05;97918.66;4990252;28;20081;-64
2021/07/20 07:35:31;;;;;;;22.58;13.82;;;19.60;99.90;;;18.07;68.71;97926.53;4990636;28;20046;-64
2021/07/20 07:38:19;;;;;;;22.83;14.18;;;19.50;99.90;;;18.17;69.76;97924.94;4986113;28;20047;-64
2021/07/20 07:41:07;;;;;;;22.70;14.00;;;19.60;99.90;;;17.97;69.15;97930.69;4992816;28;20053;-64
2021/07/20 07:43:55;;;;;;;24.40;15.05;;;19.70;99.90;;;18.22;68.69;97926.41;4991623;28;20526;-64
2021/07/20 07:46:44;;;;;;;24.02;14.95;;;19.70;99.90;;;18.26;68.88;97931.38;4995857;28;20128;-63
2021/07/20 07:49:34;;;;;;;28.60;15.27;;;19.60;99.90;;;18.48;67.15;97932.53;4980044;28;20046;-63
2021/07/20 07:52:22;;;;;;;26.48;16.00;;;19.60;99.90;;;18.23;68.00;97931.59;4989646;28;20474;-63
2021/07/20 07:55:11;;;;;;;23.33;16.33;;;19.50;99.90;;;18.29;68.41;97932.94;4977260;28;20042;-63
2021/07/20 07:57:59;;;;;;;23.08;16.08;;;19.50;99.90;;;18.23;68.19;97930.75;4989252;28;20042;-63
2021/07/20 08:00:48;;;;;;;25.65;15.82;;;19.80;99.90;;;18.66;67.36;97936.50;4989162;28;20039;-63
2021/07/20 08:03:43;;;;;;;19.85;13.40;;;19.90;99.90;;;19.11;66.83;97936.00;4977148;28;20057;-64
2021/07/20 08:06:31;;;;;;;25.55;15.45;;;20.10;99.90;;;18.60;66.51;97937.75;4992404;28;20057;-63
2021/07/20 08:09:31;;;;;;;21.25;14.43;;;20.20;99.90;;;19.38;65.04;97933.19;4972052;28;20442;-63
2021/07/20 08:12:19;;;;;;;21.30;14.30;;;20.40;99.90;;;19.17;65.23;97932.94;4975598;28;20422;-63
2021/07/20 08:15:08;;;;;;;21.33;14.23;;;20.40;99.90;;;18.94;64.57;97932.81;4990878;28;20418;-63
2021/07/20 08:17:56;;;;;;;21.00;14.13;;;20.10;99.90;;;19.52;63.61;97940.06;4990155;28;20050;-63
2021/07/20 08:20:45;;;;;;;29.40;16.95;;;20.50;99.90;;;19.36;66.22;97942.97;4986199;28;20053;-64
2021/07/20 08:23:35;;;;;;;20.63;14.43;;;20.70;99.90;;;19.70;62.67;97941.38;4988379;28;20140;-64
2021/07/20 08:26:29;;;;;;;21.85;14.07;;;21.00;99.90;;;20.21;63.57;97937.59;4991861;28;20060;-64
2021/07/20 08:29:21;;;;;;;21.23;13.90;;;21.30;99.90;;;20.00;60.52;97933.00;4981922;28;20221;-64
2021/07/20 08:32:12;;;;;;;21.05;13.13;;;21.80;99.90;;;20.92;59.93;97937.44;4988655;28;20039;-64
2021/07/20 08:35:14;;;;;;;16.83;12.38;;;22.00;99.90;;;20.81;56.08;97933.00;4977302;28;20524;-64
2021/07/20 08:38:15;;;;;;;16.52;11.63;;;22.40;99.90;;;21.37;55.11;97939.97;4989056;28;20042;-64
2021/07/20 08:41:24;;;;;;;19.45;12.73;;;22.40;99.90;;;20.75;56.00;97938.75;4963704;28;20065;-62
2021/07/20 08:44:35;;;;;;;17.80;11.48;;;22.20;99.90;;;21.73;53.10;97944.09;4975467;28;20403;-64
2021/07/20 08:47:40;;;;;;;18.92;12.85;;;22.70;99.90;;;22.16;49.50;97942.31;4997505;28;20038;-65
2021/07/20 08:50:36;;;;;;;15.73;11.40;;;23.10;99.90;;;22.66;51.12;97931.91;4992855;28;20046;-62
2021/07/20 08:53:51;;;;;;;15.63;11.55;;;23.50;99.90;;;20.97;51.98;97941.38;4982272;28;20046;-63
2021/07/20 08:56:42;;;;;;;14.52;11.27;;;22.90;99.90;;;20.34;55.04;97942.75;4975616;28;20197;-64
2021/07/20 09:00:14;;;;;;;15.90;11.38;;;22.50;99.90;;;20.55;54.09;97937.63;4971695;28;20351;-64
2021/07/20 09:03:32;;;;;;;18.38;12.02;;;22.30;99.90;;;20.66;53.25;97946.44;4989703;28;20456;-64
2021/07/20 09:06:48;;;;;;;17.60;11.20;;;22.10;99.90;;;20.44;53.58;97944.59;4987526;28;20046;-64
2021/07/20 09:09:41;;;;;;;18.25;12.07;;;22.00;99.90;;;20.42;54.74;97940.38;4987371;28;20124;-64
2021/07/20 09:12:32;;;;;;;16.27;12.57;;;21.50;99.90;;;20.02;56.39;97946.03;4986445;28;20050;-64
2021/07/20 09:15:21;;;;;;;17.23;11.55;;;21.30;99.90;;;19.34;58.74;97947.50;4997640;28;20122;-64
2021/07/20 09:18:18;;;;;;;18.75;12.48;;;21.20;99.90;;;19.57;57.25;97948.50;4981679;28;20046;-64
2021/07/20 09:21:07;;;;;;;17.27;11.98;;;21.00;99.90;;;19.69;56.05;97947.63;4991727;28;20454;-64
2021/07/20 09:24:10;;;;;;;14.63;10.52;;;21.00;99.90;;;20.95;53.45;97934.53;4979020;28;20038;-64
2021/07/20 09:27:11;;;;;;;16.35;10.88;;;21.20;99.90;;;22.62;49.01;97938.44;4990223;28;20053;-64
2021/07/20 09:30:23;;;;;;;15.82;10.98;;;22.00;99.90;;;22.77;48.15;97942.41;4987666;28;20050;-64
2021/07/20 09:33:19;;;;;;;15.18;10.30;;;22.50;99.90;;;23.98;44.43;97936.09;4990461;28;20046;-62
2021/07/20 09:36:23;;;;;;;16.35;10.73;;;23.20;99.90;;;25.11;40.57;97924.59;4990298;28;20782;-63
2021/07/20 09:39:41;;;;;;;15.65;10.55;;;23.90;99.50;;;24.67;40.92;97931.50;4992313;28;20083;-63
2021/07/20 09:42:44;;;;;;;15.80;10.23;;;24.60;98.10;;;25.23;40.08;97923.44;4966796;28;20042;-62
2021/07/20 09:45:48;;;;;;;13.73;9.05;;;24.70;97.90;;;25.36;40.68;97935.50;4991868;28;20388;-62
2021/07/20 09:48:48;;;;;;;16.77;11.13;;;25.20;97.90;;;25.23;42.22;97935.88;4984505;28;20418;-63
2021/07/20 09:51:51;;;;;;;14.45;11.13;;;26.00;98.20;;;25.82;39.72;97930.97;4991815;28;20164;-63
2021/07/20 09:55:25;;;;;;;15.35;10.70;;;26.50;96.80;;;25.16;39.48;97926.81;4987591;28;20755;-63
2021/07/20 09:58:58;;;;;;;14.57;10.15;;;26.40;96.30;;;25.34;39.41;97922.38;4987768;28;20062;-62
2021/07/20 10:01:55;;;;;;;15.57;10.38;;;25.90;96.20;;;24.05;41.99;97920.47;4991486;28;20511;-63
2021/07/20 10:05:11;;;;;;;12.38;9.43;;;25.00;96.50;;;25.11;40.16;97924.59;4980361;28;20042;-63
2021/07/20 10:08:09;;;;;;;14.40;9.48;;;25.10;97.40;;;25.67;40.52;97930.66;4991054;28;20042;-63
2021/07/20 10:11:22;;;;;;;16.58;10.32;;;25.50;96.90;;;25.45;38.43;97916.84;4987490;28;20054;-63
2021/07/20 10:14:28;;;;;;;18.15;9.98;;;25.90;95.80;;;25.74;37.85;97912.28;4978668;28;20458;-63
2021/07/20 10:17:43;;;;;;;15.73;10.45;;;25.80;95.50;;;26.18;36.80;97907.81;4989161;28;20047;-63
2021/07/20 10:20:38;;;;;;;14.38;10.25;;;26.00;95.10;;;25.87;38.38;97918.09;4976544;28;20093;-63
2021/07/20 10:23:49;;;;;;;18.38;10.65;;;26.60;95.70;;;24.13;41.82;97916.13;4990335;28;20073;-63
2021/07/20 10:26:58;;;;;;;14.30;9.93;;;26.70;94.70;;;25.93;38.09;97917.44;4990930;28;20430;-63
2021/07/20 10:30:04;;;;;;;14.77;10.30;;;26.30;94.70;;;25.46;39.75;97915.03;4991109;28;20047;-64
2021/07/20 10:33:24;;;;;;;12.60;9.30;;;26.50;95.30;;;26.91;36.61;97909.25;4988420;28;20057;-63
2021/07/20 10:36:26;;;;;;;12.02;9.60;;;26.20;95.00;;;26.91;38.19;97896.78;4975770;28;20446;-63
2021/07/20 10:39:19;;;;;;;12.70;9.70;;;26.90;95.60;;;26.81;36.79;97903.22;4975097;28;20039;-63
2021/07/20 10:42:41;;;;;;;12.52;9.32;;;27.10;94.60;;;26.92;37.95;97901.09;4974781;28;20054;-63
2021/07/20 10:45:34;;;;;;;13.05;9.82;;;26.60;95.20;;;26.23;38.75;97908.22;4991686;28;20034;-63
2021/07/20 10:48:30;;;;;;;13.93;9.60;;;26.70;95.50;;;27.79;35.41;97906.13;4977040;28;20049;-63
2021/07/20 10:51:26;;;;;;;12.55;9.40;;;27.20;94.30;;;28.05;34.57;97899.81;4990719;28;20042;-63
2021/07/20 10:54:34;;;;;;;12.68;9.75;;;27.40;94.50;;;26.76;36.90;97902.88;4999538;28;20066;-64
2021/07/20 10:57:34;;;;;;;12.07;8.15;;;27.40;93.50;;;27.08;35.76;97904.81;4990562;28;20042;-63
2021/07/20 11:00:22;;;;;;;13.00;8.85;;;27.60;93.70;;;27.24;33.96;97898.75;4972934;28;20042;-63
2021/07/20 11:03:42;;;;;;;19.02;9.52;;;27.50;92.60;;;25.14;37.26;97910.19;4985596;28;20192;-63
2021/07/20 11:06:32;;;;;;;12.93;9.93;;;27.50;92.80;;;27.04;34.17;97895.50;4976606;28;20065;-62
2021/07/20 11:09:21;;;;;;;11.48;8.20;;;27.70;92.00;;;27.05;33.43;97890.00;4988273;28;20467;-62
2021/07/20 11:12:09;;;;;;;11.13;8.10;;;27.80;92.00;;;27.62;33.60;97891.13;4974922;28;20137;-62
2021/07/20 11:14:58;;;;;;;9.77;7.65;;;27.80;92.40;;;27.94;34.35;97891.16;5007544;28;20169;-62
2021/07/20 11:17:48;;;;;;;11.38;8.13;;;27.90;92.80;;;26.94;36.19;97889.44;4980942;28;20446;-63
2021/07/20 11:20:43;;;;;;;12.20;8.73;;;27.70;92.90;;;27.73;34.24;97878.31;4976720;28;20401;-63
2021/07/20 11:23:38;;;;;;;11.55;8.40;;;27.90;92.60;;;26.38;34.78;97886.34;4991638;28;20046;-63
2021/07/20 11:26:29;;;;;;;11.23;7.97;;;28.10;91.80;;;26.27;34.60;97890.09;4989263;28;20057;-63
2021/07/20 11:29:17;;;;;;;10.73;7.60;;;27.20;91.50;;;26.50;34.87;97879.75;4977410;28;20054;-62
2021/07/20 11:32:14;;;;;;;12.35;8.10;;;27.40;91.80;;;26.11;33.75;97872.19;4974065;28;20462;-63
2021/07/20 11:35:09;;;;;;;10.50;7.82;;;26.90;90.90;;;26.86;33.43;97875.09;4987680;28;20061;-62
2021/07/20 11:38:20;;;;;;;12.10;8.10;;;27.40;91.50;;;27.46;33.62;97881.28;4976409;28;20101;-63
2021/07/20 11:41:29;;;;;;;10.50;7.90;;;27.50;92.10;;;28.47;32.26;97883.59;4992367;28;20042;-62
2021/07/20 11:44:45;;;;;;;11.57;7.15;;;28.20;91.90;;;29.18;30.73;97887.16;4990062;28;20050;-63
2021/07/20 11:47:57;;;;;;;10.13;7.07;;;28.60;91.50;;;30.10;30.72;97877.47;4974276;28;20132;-62
2021/07/20 11:51:00;;;;;;;9.85;6.72;;;29.00;91.20;;;30.37;29.86;97871.50;5001044;28;20395;-62
2021/07/20 11:54:34;;;;;;;11.52;7.72;;;29.70;91.00;;;28.67;31.75;97885.84;4974054;28;20037;-63
2021/07/20 11:57:58;;;;;;;10.68;7.22;;;29.90;91.40;;;27.98;31.87;97877.47;4998411;28;20049;-63
2021/07/20 12:01:42;;;;;;;10.25;7.03;;;29.40;89.60;;;27.33;32.81;97885.25;4984324;28;20046;-62
2021/07/20 12:05:08;;;;;;;12.50;7.85;;;28.50;89.60;;;27.32;32.60;97878.28;4977851;28;20159;-63